Queen Isabella — A8IE2 — position and weather

sailwx.info

Track history (hours):
 
Tides and Currents Weather Stations Pressure Air Temp Water Temp Dewpoint Dewpoint Depression Visibility Wind Speed Wind Dir Waves Ship Positions

Queen Isabella

Last reported at 2015-Apr-25 13:25 UTC. Time now 2015-Apr-25 21:57 UTC.
Position N 43°40' W 006°11'.

Length 131 m; draft 6.1 m.

Type: Ship. MMSI: 636090959.

Date/timePositionNaut miles runAvg speedWind from/ knotsBaromVisibWave heightAir tempDewpointWater temp
2015-Apr-25 13:25N 43°40' W 006°11'1112.2
2015-Apr-25 12:32N 43°36' W 005°57'1 0.0
2015-Apr-24 19:21N 43°36' W 005°56'6 6.7
2015-Apr-24 18:31N 43°38' W 006°03'1313.2
2015-Apr-24 17:32N 43°42' W 006°20'1313.1
2015-Apr-24 16:31N 43°46' W 006°37'31110.6
2015-Apr-23 11:16N 39°13' W 009°56'1014.1
2015-Apr-23 10:33N 39°03' W 009°56'1413.8
2015-Apr-23 09:30N 38°49' W 009°56'1213.0
2015-Apr-23 08:33N 38°37' W 009°53'1413.8
2015-Apr-23 07:33N 38°38' W 009°35'9 8.5
2015-Apr-23 06:33N 38°37' W 009°24'8 8.4
2015-Apr-23 05:34N 38°41' W 009°15'8 8.2
2015-Apr-23 04:34N 38°41' W 009°04'1 0.5
2015-Apr-23 03:32N 38°41' W 009°04'0 0.0
2015-Apr-23 02:32N 38°41' W 009°04'0 0.0
2015-Apr-23 01:32N 38°41' W 009°04'0 0.0
2015-Apr-23 00:32N 38°41' W 009°04'0 0.0
2015-Apr-22 23:32N 38°41' W 009°04'0 0.0
2015-Apr-22 22:32N 38°41' W 009°04'0 0.0
2015-Apr-22 21:32N 38°41' W 009°04'0 0.0
2015-Apr-22 20:32N 38°41' W 009°04'0 0.0
2015-Apr-22 19:32N 38°41' W 009°04'0 0.0
2015-Apr-22 18:32N 38°41' W 009°04'0 0.0
2015-Apr-22 17:32N 38°41' W 009°04'2 2.5
2015-Apr-22 16:33N 38°41' W 009°07'1211.6
2015-Apr-22 15:30N 38°38' W 009°22'3 1.4
2015-Apr-22 13:13N 38°41' W 009°23'0 0.0
2015-Apr-22 11:07N 38°41' W 009°23'0 0.0
2015-Apr-22 10:13N 38°41' W 009°23'0 0.1
2015-Apr-22 09:10N 38°41' W 009°23'0 0.1
2015-Apr-22 08:25N 38°40' W 009°23'0 0.0
2015-Apr-22 07:22N 38°40' W 009°23'0 0.0
2015-Apr-22 06:04N 38°41' W 009°23'0 0.0
2015-Apr-22 04:22N 38°41' W 009°23'0 0.0
2015-Apr-22 02:13N 38°41' W 009°23'0 0.0
2015-Apr-22 01:22N 38°41' W 009°23'0 0.0
2015-Apr-21 20:28N 38°40' W 009°23'0 0.0
2015-Apr-21 17:14N 38°41' W 009°23'0 0.0
2015-Apr-21 16:32N 38°41' W 009°23'0 0.0
2015-Apr-21 15:23N 38°41' W 009°23'0 0.0
2015-Apr-21 14:32N 38°41' W 009°23'0 0.0
2015-Apr-21 13:29N 38°41' W 009°23'0 0.0
2015-Apr-21 11:14N 38°41' W 009°23'3 4.5
2015-Apr-21 10:33N 38°38' W 009°25'1413.6
2015-Apr-21 09:34N 38°24' W 009°24'1413.5
2015-Apr-21 08:33N 38°11' W 009°24'1413.6
2015-Apr-21 07:33N 37°57' W 009°25'1313.1
2015-Apr-21 06:33N 37°44' W 009°25'1613.1
2015-Apr-21 05:21N 37°28' W 009°25'10111.2
2015-Apr-20 20:19N 36°21' W 007°51'1113.9
2015-Apr-20 19:31N 36°18' W 007°37'10813.2
2015-Apr-20 11:19N 36°03' W 005°25'3 0.9
2015-Apr-20 07:33N 36°06' W 005°25'0 0.0
2015-Apr-20 05:15N 36°06' W 005°25'0 0.0
2015-Apr-20 04:24N 36°06' W 005°25'0 0.0
2015-Apr-20 03:30N 36°06' W 005°25'0 0.0
2015-Apr-20 02:06N 36°06' W 005°25'0 0.0
2015-Apr-20 01:33N 36°06' W 005°25'0 0.0
2015-Apr-20 00:24N 36°06' W 005°25'0 0.1
2015-Apr-19 22:21N 36°06' W 005°25'0 0.0
2015-Apr-19 21:24N 36°06' W 005°25'0 0.0
2015-Apr-19 19:21N 36°06' W 005°25'0 0.0
2015-Apr-19 18:21N 36°06' W 005°25'0 0.0
2015-Apr-19 17:12N 36°06' W 005°25'0 0.0
2015-Apr-19 16:30N 36°06' W 005°25'0 0.0
2015-Apr-19 15:33N 36°06' W 005°25'0 0.0
2015-Apr-19 14:30N 36°06' W 005°25'0 0.0
2015-Apr-19 13:24N 36°06' W 005°25'0 0.1
2015-Apr-19 12:24N 36°06' W 005°25'0 0.1
2015-Apr-19 11:33N 36°06' W 005°25'0 0.1
2015-Apr-19 10:33N 36°06' W 005°25'8 8.4
2015-Apr-19 09:33N 36°05' W 005°15'21713.5
2015-Apr-18 17:31N 36°07' W 000°46'1313.5
2015-Apr-18 16:33N 36°07' W 000°30'22 0.5
2015-Apr-16 19:16N 36°11' W 000°03'44 3.7
2015-Apr-16 07:27N 36°54' W 000°02'7713.1
2015-Apr-16 01:32N 38°11' E 000°14'7612.3
2015-Apr-15 19:22N 39°25' W 000°04'1113.1
2015-Apr-15 18:32N 39°35' W 000°11'  
Track history (hours):
 
Tides and Currents Weather Stations Pressure Air Temp Water Temp Dewpoint Dewpoint Depression Visibility Wind Speed Wind Dir Waves Ship Positions

Queen Isabella

Last reported at 2015-Apr-25 13:25 UTC. Time now 2015-Apr-25 21:57 UTC.
Position N 43°40' W 006°11'.

Length 131 m; draft 6.1 m.

Type: Ship. MMSI: 636090959.

Date/timePositionNaut miles runAvg speedWind from/ knotsBaromVisibWave heightAir tempDewpointWater temp
2015-Apr-25 13:25N 43°40' W 006°11'1112.2
2015-Apr-25 12:32N 43°36' W 005°57'1 0.0
2015-Apr-24 19:21N 43°36' W 005°56'6 6.7
2015-Apr-24 18:31N 43°38' W 006°03'1313.2
2015-Apr-24 17:32N 43°42' W 006°20'1313.1
2015-Apr-24 16:31N 43°46' W 006°37'31110.6
2015-Apr-23 11:16N 39°13' W 009°56'1014.1
2015-Apr-23 10:33N 39°03' W 009°56'1413.8
2015-Apr-23 09:30N 38°49' W 009°56'1213.0
2015-Apr-23 08:33N 38°37' W 009°53'1413.8
2015-Apr-23 07:33N 38°38' W 009°35'9 8.5
2015-Apr-23 06:33N 38°37' W 009°24'8 8.4
2015-Apr-23 05:34N 38°41' W 009°15'8 8.2
2015-Apr-23 04:34N 38°41' W 009°04'1 0.5
2015-Apr-23 03:32N 38°41' W 009°04'0 0.0
2015-Apr-23 02:32N 38°41' W 009°04'0 0.0
2015-Apr-23 01:32N 38°41' W 009°04'0 0.0
2015-Apr-23 00:32N 38°41' W 009°04'0 0.0
2015-Apr-22 23:32N 38°41' W 009°04'0 0.0
2015-Apr-22 22:32N 38°41' W 009°04'0 0.0
2015-Apr-22 21:32N 38°41' W 009°04'0 0.0
2015-Apr-22 20:32N 38°41' W 009°04'0 0.0
2015-Apr-22 19:32N 38°41' W 009°04'0 0.0
2015-Apr-22 18:32N 38°41' W 009°04'0 0.0
2015-Apr-22 17:32N 38°41' W 009°04'2 2.5
2015-Apr-22 16:33N 38°41' W 009°07'1211.6
2015-Apr-22 15:30N 38°38' W 009°22'3 1.4
2015-Apr-22 13:13N 38°41' W 009°23'0 0.0
2015-Apr-22 11:07N 38°41' W 009°23'0 0.0
2015-Apr-22 10:13N 38°41' W 009°23'0 0.1
2015-Apr-22 09:10N 38°41' W 009°23'0 0.1
2015-Apr-22 08:25N 38°40' W 009°23'0 0.0
2015-Apr-22 07:22N 38°40' W 009°23'0 0.0
2015-Apr-22 06:04N 38°41' W 009°23'0 0.0
2015-Apr-22 04:22N 38°41' W 009°23'0 0.0
2015-Apr-22 02:13N 38°41' W 009°23'0 0.0
2015-Apr-22 01:22N 38°41' W 009°23'0 0.0
2015-Apr-21 20:28N 38°40' W 009°23'0 0.0
2015-Apr-21 17:14N 38°41' W 009°23'0 0.0
2015-Apr-21 16:32N 38°41' W 009°23'0 0.0
2015-Apr-21 15:23N 38°41' W 009°23'0 0.0
2015-Apr-21 14:32N 38°41' W 009°23'0 0.0
2015-Apr-21 13:29N 38°41' W 009°23'0 0.0
2015-Apr-21 11:14N 38°41' W 009°23'3 4.5
2015-Apr-21 10:33N 38°38' W 009°25'1413.6
2015-Apr-21 09:34N 38°24' W 009°24'1413.5
2015-Apr-21 08:33N 38°11' W 009°24'1413.6
2015-Apr-21 07:33N 37°57' W 009°25'1313.1
2015-Apr-21 06:33N 37°44' W 009°25'1613.1
2015-Apr-21 05:21N 37°28' W 009°25'10111.2
2015-Apr-20 20:19N 36°21' W 007°51'1113.9
2015-Apr-20 19:31N 36°18' W 007°37'10813.2
2015-Apr-20 11:19N 36°03' W 005°25'3 0.9
2015-Apr-20 07:33N 36°06' W 005°25'0 0.0
2015-Apr-20 05:15N 36°06' W 005°25'0 0.0
2015-Apr-20 04:24N 36°06' W 005°25'0 0.0
2015-Apr-20 03:30N 36°06' W 005°25'0 0.0
2015-Apr-20 02:06N 36°06' W 005°25'0 0.0
2015-Apr-20 01:33N 36°06' W 005°25'0 0.0
2015-Apr-20 00:24N 36°06' W 005°25'0 0.1
2015-Apr-19 22:21N 36°06' W 005°25'0 0.0
2015-Apr-19 21:24N 36°06' W 005°25'0 0.0
2015-Apr-19 19:21N 36°06' W 005°25'0 0.0
2015-Apr-19 18:21N 36°06' W 005°25'0 0.0
2015-Apr-19 17:12N 36°06' W 005°25'0 0.0
2015-Apr-19 16:30N 36°06' W 005°25'0 0.0
2015-Apr-19 15:33N 36°06' W 005°25'0 0.0
2015-Apr-19 14:30N 36°06' W 005°25'0 0.0
2015-Apr-19 13:24N 36°06' W 005°25'0 0.1
2015-Apr-19 12:24N 36°06' W 005°25'0 0.1
2015-Apr-19 11:33N 36°06' W 005°25'0 0.1
2015-Apr-19 10:33N 36°06' W 005°25'8 8.4
2015-Apr-19 09:33N 36°05' W 005°15'21713.5
2015-Apr-18 17:31N 36°07' W 000°46'1313.5
2015-Apr-18 16:33N 36°07' W 000°30'22 0.5
2015-Apr-16 19:16N 36°11' W 000°03'44 3.7
2015-Apr-16 07:27N 36°54' W 000°02'7713.1
2015-Apr-16 01:32N 38°11' E 000°14'7612.3
2015-Apr-15 19:22N 39°25' W 000°04'1113.1
2015-Apr-15 18:32N 39°35' W 000°11'  

Dump ship's entire track history